Oscar Dyson — WTEP — position and weather

sailwx.info

Track history (hours):
 
Tides and Currents Weather Stations Pressure Air Temp Water Temp Dewpoint Dewpoint Depression Visibility Wind Speed Wind Dir Waves Ship Positions

Oceanographic research ship Oscar Dyson (USA)

Ship's website: http://www.moc.noaa.gov/od/

Detailed information on ship capabilities available from University of Delaware's Ocean Information Center and ARCUS's ALIAS (Arctic Logistics Information and Support) project.

Last reported at 2016-Jun-29 17:00 UTC. Time now 2016-Jun-29 18:23 UTC.
Position N 57°42' W 167°42'.

Type: Ship. MMSI: 369959000.

Wind from 120 at 18 knots

Barometer 1013.8 mb
Air temperature 10.4 ° C
Dewpoint 9.3 ° C
Water temperature 9.2 ° C

Date/timePositionNaut miles runAvg speedWind from/ knotsBaromVisibWave heightAir tempDewpointWater temp
2016-Jun-29 17:00N 57°42' W 167°42'0 0.0 120 / 181013.8 10.4 9.3 9.2
2016-Jun-29 16:58N 57°42' W 167°42'1212.4 120 / 18 10.4 9.2
2016-Jun-29 16:00N 57°30' W 167°42'3193.4 120 / 181013.6 10.1 9.0 9.2
2016-Jun-29 15:59N 57°30' W 167°36'1212.6 120 / 18 10.1 9.2
2016-Jun-29 15:00N 57°18' W 167°42'6 6.0 120 / 151013.6 9.7 9.2 9.2
2016-Jun-29 14:00N 57°12' W 167°42'722.8 110 / 151013.4 9.6 9.1 9.5
2016-Jun-29 13:42N 57°06' W 167°36'6 8.6 120 / 14 9.7 9.4
2016-Jun-29 13:00N 57°12' W 167°36'620.0 130 / 141013.5 9.7 9.1 9.4
2016-Jun-29 12:42N 57°06' W 167°36'7 9.8 120 / 15 9.8 9.4
2016-Jun-29 12:00N 57°12' W 167°42'724.1 120 / 161013.5 9.8 9.0 9.4
2016-Jun-29 11:43N 57°06' W 167°36'3 4.5 120 / 17 9.8 9.4
2016-Jun-29 11:00N 57°06' W 167°42'312.2 130 / 161013.6 10.0 9.1 9.3
2016-Jun-29 10:44N 57°06' W 167°36'7 9.3 130 / 16 10.0 9.3
2016-Jun-29 10:00N 57°12' W 167°42'727.3 140 / 161013.6 10.0 9.1 9.4
2016-Jun-29 09:45N 57°06' W 167°36'3 4.3 130 / 17 10.0 9.4
2016-Jun-29 09:00N 57°06' W 167°42'314.0 140 / 171013.5 10.1 9.0 9.3
2016-Jun-29 08:46N 57°06' W 167°36'0 0.0 140 / 18 10.1 9.4
2016-Jun-29 08:00N 57°06' W 167°36'0 0.0 130 / 181013.5 10.1 9.1 9.5
2016-Jun-29 07:46N 57°06' W 167°36'7 8.9 130 / 17 10.0 9.5
2016-Jun-29 07:00N 57°12' W 167°42'731.5 130 / 161013.3 9.7 8.9 9.5
2016-Jun-29 06:47N 57°06' W 167°36'0 0.0 130 / 19 9.7 9.5
2016-Jun-29 06:00N 57°06' W 167°36'1212.0 150 / 221013.610.8 1.5 9.9 8.8 9.4
2016-Jun-29 05:00N 56°54' W 167°36'632.7 140 / 211013.5 9.8 8.7 9.6
2016-Jun-29 04:49N 56°48' W 167°36'6 7.3 140 / 21 9.8 9.6
2016-Jun-29 04:00N 56°42' W 167°36'636.0 150 / 221013.2 9.7 8.8 9.5
2016-Jun-29 03:50N 56°36' W 167°36'0 0.0 150 / 23 9.7 9.5
2016-Jun-29 03:00N 56°36' W 167°36'0 0.0 150 / 231013.4 9.6 8.5 9.6
2016-Jun-29 02:50N 56°36' W 167°36'6 7.2 150 / 25 9.5 9.6
2016-Jun-29 02:00N 56°30' W 167°36'322.1 150 / 201013.7 9.6 8.5 9.7
2016-Jun-29 01:51N 56°30' W 167°30'3 3.9 150 / 22 9.6 9.7
2016-Jun-29 01:00N 56°30' W 167°36'0 0.0 150 / 221014.0 9.3 8.2 9.7
2016-Jun-29 00:52N 56°30' W 167°36'0 0.0 150 / 21 9.3 9.7
2016-Jun-29 00:00N 56°30' W 167°36'1212.0 150 / 221014.3 9.4 8.2 9.7
2016-Jun-28 23:00N 56°18' W 167°36'333.3 140 / 231014.2 9.2 8.0 9.7
2016-Jun-28 22:54N 56°18' W 167°30'18 9.5 140 / 23 9.2 9.7
2016-Jun-28 21:00N 56°00' W 167°30'672.0 150 / 201014.5 10.2 8.8 9.9
2016-Jun-28 20:55N 55°54' W 167°30'6 6.5 150 / 19 9.8 9.8
2016-Jun-28 20:00N 56°00' W 167°30'690.0 130 / 161014.8 8.8 8.1 9.7
2016-Jun-28 19:56N 55°54' W 167°30'6 6.4 140 / 17 8.8 9.7
2016-Jun-28 19:00N 56°00' W 167°30'6120.0 150 / 171014.9 9.1 9.1 9.7
2016-Jun-28 18:57N 55°54' W 167°30'7 7.2 150 / 15 9.2 9.7
2016-Jun-28 18:00N 56°00' W 167°36'7206.3 150 / 151015.1 7.8 7.8 9.7
2016-Jun-28 17:58N 55°54' W 167°30'0 0.0 160 / 15 8.1 9.7
2016-Jun-28 17:00N 55°54' W 167°30'6180.0 150 / 161015.5 8.0 8.0 9.8
2016-Jun-28 16:58N 55°48' W 167°30'6 6.2 160 / 15 8.1 9.9
2016-Jun-28 16:00N 55°42' W 167°30'6 6.0 150 / 171015.4 7.4 7.4 9.3
2016-Jun-28 15:00N 55°36' W 167°30'6 6.0 120 / 131015.5 0.5 0.5 7.2 7.2 9.1
2016-Jun-28 14:00N 55°30' W 167°30'0 0.0 150 / 121015.8 7.0 7.0 9.5
2016-Jun-28 13:52N 55°30' W 167°30'0 0.0 150 / 12 6.9 9.5
2016-Jun-28 13:00N 55°30' W 167°30'0 0.0 140 / 101016.4 6.9 6.9 9.7
2016-Jun-28 12:53N 55°30' W 167°30'3 3.8 150 / 10 6.8 9.7
2016-Jun-28 12:00N 55°30' W 167°24'334.0 160 / 91015.1 0.5 7.5 6.8-9.6
2016-Jun-28 11:54N 55°30' W 167°30'0 0.0 150 / 12 6.6 9.6
2016-Jun-28 11:00N 55°30' W 167°30'0 0.0 140 / 91016.9 7.1 7.1 9.6
2016-Jun-28 10:54N 55°30' W 167°30'0 0.0 140 / 9 6.9 9.6
2016-Jun-28 10:00N 55°30' W 167°30'0 0.0 160 / 101017.4 6.6 6.6 9.8
2016-Jun-28 09:55N 55°30' W 167°30'0 0.0 150 / 12 6.6 9.8
2016-Jun-28 09:00N 55°30' W 167°30'0 0.0 130 / 111017.2 6.3 6.3 9.9
2016-Jun-28 08:56N 55°30' W 167°30'0 0.0 130 / 11 6.4 9.9
2016-Jun-28 08:00N 55°30' W 167°30'0 0.0 150 / 111017.4 6.5 6.510.0
2016-Jun-28 07:57N 55°30' W 167°30'0 0.0 140 / 10 6.1 10.0
2016-Jun-28 07:00N 55°30' W 167°30'6180.0 150 / 71017.8 6.0 5.810.0
2016-Jun-28 06:58N 55°24' W 167°30'6 6.2 160 / 7 6.1 10.0
2016-Jun-28 06:00N 55°30' W 167°30'0 0.0 180 / 71018.0 6.6 6.310.0
2016-Jun-28 05:58N 55°30' W 167°30'6 6.2 160 / 8 6.7 10.0
2016-Jun-28 05:00N 55°24' W 167°30'7414.1 180 / 61018.2 7.0 6.4 9.3
2016-Jun-28 04:59N 55°18' W 167°24'0 0.0 150 / 8 6.8 9.4
2016-Jun-28 04:00N 55°18' W 167°24'7 6.9 140 / 91018.3 7.2 7.3 9.6
2016-Jun-28 03:00N 55°24' W 167°30'6180.0 140 / 71018.5 6.3 5.8 9.5
2016-Jun-28 02:58N 55°18' W 167°30'0 0.0 150 / 7 6.4 9.5
2016-Jun-28 02:00N 55°18' W 167°30'3204.9 180 / 51019.1 6.7 6.3 9.6
2016-Jun-28 01:59N 55°18' W 167°24'7 7.0 190 / 6 6.6 9.5
2016-Jun-28 01:00N 55°24' W 167°30'6360.0 150 / 71019.2 6.0 5.8 9.4
2016-Jun-28 00:59N 55°18' W 167°30'0 0.0 170 / 7 6.2 9.5
2016-Jun-28 00:00N 55°18' W 167°30'3612.1 150 / 51019.3 0.5 0.5 6.4 6.1 9.6
2016-Jun-27 21:00N 54°42' W 167°24'341.6 170 / 41020.0 5.0 5.0 9.3
2016-Jun-27 20:55N 54°42' W 167°18'910.0 140 / 3 5.3 9.3
2016-Jun-27 20:00N 54°36' W 167°06'0 0.0 120 / 41020.1 5.4 5.4 9.2
2016-Jun-27 19:56N 54°36' W 167°06'9 9.8 120 / 3 5.5 9.3
2016-Jun-27 19:00N 54°30' W 166°54'6120.0 120 / 31020.1 4.9 4.9 9.1
2016-Jun-27 18:57N 54°24' W 166°54'7 7.3 100 / 3 5.0 9.1
2016-Jun-27 18:00N 54°30' W 166°48'0 0.0 200 / 11020.3 4.6 4.6 8.7
2016-Jun-27 17:58N 54°30' W 166°48'1212.4 270 / 2 4.7 8.8
2016-Jun-27 17:00N 54°42' W 166°48'6360.0 300 / 41020.3 5.0 5.0 8.8
2016-Jun-27 16:59N 54°36' W 166°48'1818.6 300 / 2 5.0 8.8
2016-Jun-27 16:00N 54°54' W 166°54'7415.4 280 / 51020.2 4.9 4.9 9.0
2016-Jun-27 15:59N 54°48' W 166°48'1212.2 300 / 4 5.1 9.0
2016-Jun-27 15:00N 55°00' W 166°48'1212.5 330 / 21018.7 0.3 0.5 5.2 5.5 9.5
2016-Jun-27 14:00N 55°12' W 166°54'0 0.0 290 / 51020.4 5.6 5.6 9.5
2016-Jun-27 13:00N 55°12' W 166°54'325.7 250 / 51020.4 5.4 5.4 9.6
2016-Jun-27 12:52N 55°12' W 166°48'3 4.0 260 / 5 5.4 9.6
2016-Jun-27 12:00N 55°12' W 166°54'329.4 270 / 71020.6 5.8 5.8 9.6
2016-Jun-27 11:53N 55°12' W 166°48'3 3.9 270 / 7 5.8 9.6
2016-Jun-27 11:00N 55°12' W 166°54'0 0.0 230 / 51020.8 5.9 5.9 9.6
2016-Jun-27 10:54N 55°12' W 166°54'0 0.0 230 / 6 6.0 9.6
2016-Jun-27 10:00N 55°12' W 166°54'341.1 210 / 31020.7 6.1 6.1 9.6
2016-Jun-27 09:55N 55°12' W 166°48'3 3.7 220 / 4 6.3 9.6
2016-Jun-27 09:00N 55°12' W 166°54'0 0.0 260 / 21020.9 6.3 6.3 9.6
2016-Jun-27 08:55N 55°12' W 166°54'0 0.0 250 / 2 6.5 9.6
2016-Jun-27 08:00N 55°12' W 166°54'7103.7 280 / 41020.9 6.5 6.4 9.5
2016-Jun-27 07:56N 55°06' W 166°48'1213.4 260 / 5 6.5 9.5
2016-Jun-27 07:00N 55°18' W 166°54'368.3 300 / 81020.6 6.5 6.4 9.6
2016-Jun-27 06:57N 55°18' W 166°48'1213.1 290 / 9 6.6 9.6
2016-Jun-27 06:00N 55°30' W 166°54'0 0.0 290 / 61020.5 5.4 7.1 6.8 9.5
2016-Jun-27 05:58N 55°30' W 166°54'1212.4 280 / 6 7.2 9.5
2016-Jun-27 05:00N 55°42' W 166°54'0 0.0 290 / 71020.4 7.4 7.1 9.5
2016-Jun-27 04:59N 55°42' W 166°54'1212.2 270 / 6 7.4 9.5
2016-Jun-27 04:00N 55°54' W 166°54'0 0.0 290 / 101020.6 7.6 7.1 9.2
2016-Jun-27 03:59N 55°54' W 166°54'1212.7 300 / 11 7.5 9.2
2016-Jun-27 03:00N 56°06' W 167°00'3 3.3 270 / 71020.6 8.3 8.0 9.7
2016-Jun-27 02:00N 56°06' W 166°54'0 0.0 270 / 81020.7 7.8 7.8 9.6
2016-Jun-27 01:59N 56°06' W 166°54'0 0.0 280 / 10 8.0 9.6
2016-Jun-27 01:00N 56°06' W 166°54'6360.0 250 / 71020.9 8.3 8.3 9.7
2016-Jun-27 00:59N 56°00' W 166°54'1212.7 250 / 9 8.7 9.7
2016-Jun-27 00:00N 56°12' W 166°48'1413.7 280 / 131019.0 2.2 1.0 8.0 7.7-9.5
2016-Jun-26 23:00N 56°24' W 167°00'328.5 260 / 91020.8 7.5 7.5 9.4
2016-Jun-26 22:53N 56°24' W 166°54'1214.1 260 / 9 7.6 9.4
2016-Jun-26 22:00N 56°36' W 167°00'660.0 270 / 91020.7 7.5 7.5 9.3
2016-Jun-26 21:54N 56°30' W 167°00'7 7.6 270 / 8 7.6 9.3
2016-Jun-26 21:00N 56°36' W 166°54'672.0 260 / 81020.5 7.3 7.3 9.2
2016-Jun-26 20:55N 56°30' W 166°54'7 7.5 260 / 7 7.4 9.2
2016-Jun-26 20:00N 56°36' W 167°00'349.5 280 / 131020.4 7.0 7.0 9.1
2016-Jun-26 19:56N 56°36' W 166°54'1213.3 270 / 12 7.0 9.1
2016-Jun-26 19:00N 56°48' W 167°00'690.0 270 / 121020.3 6.9 6.9 9.1
2016-Jun-26 18:56N 56°42' W 167°00'1819.3 270 / 11 6.9 9.1
2016-Jun-26 18:00N 57°00' W 167°00'6120.0 270 / 121020.3 6.8 6.8 9.1
2016-Jun-26 17:57N 56°54' W 167°00'1818.9 270 / 12 6.9 9.1
2016-Jun-26 17:00N 57°12' W 167°00'6180.0 280 / 111020.2 6.6 6.6 9.0
2016-Jun-26 16:58N 57°06' W 167°00'1818.6 270 / 10 6.7 9.0
2016-Jun-26 16:00N 57°24' W 167°00'6360.0 280 / 111020.0 6.6 6.6 9.0
2016-Jun-26 15:59N 57°18' W 167°00'1212.6 270 / 9 6.6 9.0
2016-Jun-26 15:00N 57°30' W 166°54'1212.4 280 / 91018.2 0.5 1.0 6.8 6.5-9.1
2016-Jun-26 14:00N 57°42' W 167°00'10 9.6 290 / 91019.9 6.7 6.7 9.0
2016-Jun-26 13:00N 57°42' W 166°42'321.4 300 / 121019.7 6.6 6.6 9.2
2016-Jun-26 12:51N 57°42' W 166°36'1011.3 300 / 12 6.7 9.2
2016-Jun-26 12:00N 57°42' W 166°18'324.0 300 / 131017.9 1.0 7.5 6.8-9.3
2016-Jun-26 11:52N 57°42' W 166°24'0 0.0 310 / 12 6.9 9.3
2016-Jun-26 11:00N 57°42' W 166°24'0 0.0 300 / 131019.9 7.0 7.0 9.4
2016-Jun-26 10:52N 57°42' W 166°24'0 0.0 300 / 13 7.0 9.4
2016-Jun-26 10:00N 57°42' W 166°24'0 0.0 300 / 151020.0 7.0 7.0 9.3
2016-Jun-26 09:53N 57°42' W 166°24'0 0.0 300 / 15 6.9 9.3
2016-Jun-26 09:00N 57°42' W 166°24'0 0.0 320 / 141020.0 7.0 7.0 9.3
2016-Jun-26 08:54N 57°42' W 166°24'0 0.0 320 / 14 7.1 9.3
2016-Jun-26 08:00N 57°42' W 166°24'672.0 300 / 151019.9 7.3 7.3 9.3
2016-Jun-26 07:55N 57°36' W 166°24'6 6.5 300 / 15 7.3 9.3
2016-Jun-26 07:00N 57°30' W 166°24'690.0 300 / 141019.9 7.3 7.3 9.3
2016-Jun-26 06:56N 57°24' W 166°24'5411.0 310 / 13 7.3 9.3
2016-Jun-26 02:00N 56°30' W 166°18'3 3.3 310 / 171020.2 7.7 7.4 9.3
2016-Jun-26 01:00N 56°30' W 166°24'6012.0 330 / 171020.2 7.8 7.5 9.3
2016-Jun-25 20:00N 55°30' W 166°18'6 6.0 320 / 191019.4 9.8 7.7 9.2
2016-Jun-25 19:00N 55°36' W 166°18'690.0 340 / 211019.2 8.2 7.9 9.3
2016-Jun-25 18:56N 55°30' W 166°18'6 6.4 340 / 21 8.3 9.3
2016-Jun-25 18:00N 55°36' W 166°18'690.0 330 / 211018.9 7.9 7.9 9.3
2016-Jun-25 17:56N 55°30' W 166°18'6 6.4 330 / 21 8.1 9.3
2016-Jun-25 17:00N 55°24' W 166°18'0 0.0 330 / 211018.4 8.2 8.2 8.8
2016-Jun-25 16:57N 55°24' W 166°18'3010.2 330 / 21 8.1 8.9
2016-Jun-25 14:00N 54°54' W 166°12'0 0.0 320 / 151018.5 8.0 7.6 8.6
2016-Jun-25 13:58N 54°54' W 166°12'0 0.0 320 / 14 8.0 8.6
2016-Jun-25 13:00N 54°54' W 166°12'6360.0 330 / 161018.5 7.9 7.3 8.6
2016-Jun-25 12:59N 54°48' W 166°12'6 6.1 320 / 16 7.9 8.6
2016-Jun-25 12:00N 54°54' W 166°12'7415.4 320 / 161018.510.8 1.5 8.1 7.5 8.5
2016-Jun-25 11:59N 54°48' W 166°06'7 7.0 320 / 17 8.4 8.6
2016-Jun-25 11:00N 54°54' W 166°12'651.4 330 / 171018.4 8.2 7.4 8.6
2016-Jun-25 10:53N 54°48' W 166°12'6 6.8 330 / 17 8.2 8.6
2016-Jun-25 10:00N 54°54' W 166°12'769.2 330 / 161018.2 9.1 7.8 8.6
2016-Jun-25 09:54N 54°48' W 166°06'7 7.7 340 / 16 9.7 8.6
2016-Jun-25 09:00N 54°54' W 166°12'783.1 330 / 181017.9 8.6 7.0 8.5
2016-Jun-25 08:55N 54°48' W 166°06'910.0 330 / 17 8.5 8.5
2016-Jun-25 08:00N 54°54' W 166°18'351.8 330 / 171017.6 8.6 7.9 8.7
2016-Jun-25 07:56N 54°54' W 166°12'7 7.4 330 / 16 8.7 8.7
2016-Jun-25 07:00N 54°48' W 166°18'7103.9 300 / 181017.2 8.1 8.1 8.3
2016-Jun-25 06:56N 54°42' W 166°12'4310.8 300 / 18 8.0 8.4
2016-Jun-25 03:00N 54°00' W 166°24'470.5 270 / 271018.4 8.4 7.5 8.1
2016-Jun-25 02:57N 54°00' W 166°18'9 9.8 270 / 28 8.3 8.1
2016-Jun-25 02:00N 53°54' W 166°30'4106.1 210 / 181018.4 10.7 7.3 9.3
2016-Jun-25 01:58N 53°54' W 166°24'4 3.7 230 / 13 10.8 9.4
2016-Jun-25 01:00N 53°54' W 166°30'0 0.0 200 / 141018.8 10.8 7.1 8.9
2016-Jun-25 00:59N 53°54' W 166°30'4 3.6 210 / 13 11.1 9.0
2016-Jun-25 00:00N 53°54' W 166°24'4 3.5 210 / 191016.8 5.4 0.510.2 6.9-8.8
2016-Jun-24 23:00N 53°54' W 166°30'430.3 240 / 241018.5 10.1 7.1 9.1
2016-Jun-24 22:53N 53°54' W 166°24'6 6.8 240 / 25 10.1 9.1
2016-Jun-24 22:00N 54°00' W 166°24'0 0.0 290 / 291018.6 8.1 7.2 8.1
2016-Jun-24 21:54N 54°00' W 166°24'910.3 290 / 30 8.2 8.1
2016-Jun-24 21:00N 54°06' W 166°12'0 0.0 290 / 321018.6 7.8 7.8 7.8
2016-Jun-24 20:55N 54°06' W 166°12'1415.2 290 / 29 7.8 7.8
2016-Jun-24 20:00N 54°18' W 166°00'690.0 270 / 251018.7 7.7 7.7 8.0
2016-Jun-24 19:56N 54°12' W 166°00'1414.9 270 / 23 7.7 8.0
2016-Jun-24 19:00N 54°24' W 165°48'690.0 280 / 241018.1 8.0 8.0 8.3
2016-Jun-24 18:56N 54°18' W 165°48'9 9.9 280 / 24 7.9 8.3
2016-Jun-24 18:00N 54°24' W 165°36'0 0.0 270 / 231017.8 7.9 7.5 8.7
2016-Jun-24 17:57N 54°24' W 165°36'0 0.0 280 / 24 7.9 8.7
2016-Jun-24 17:00N 54°24' W 165°36'0 0.0 270 / 241017.8 8.0 7.6 8.5
2016-Jun-24 16:58N 54°24' W 165°36'7 7.2 270 / 22 8.1 8.5
2016-Jun-24 16:00N 54°18' W 165°42'4210.1 280 / 261018.0 7.9 7.5 8.1
2016-Jun-24 15:59N 54°18' W 165°36'6 6.1 280 / 24 7.9 8.0
2016-Jun-24 15:00N 54°12' W 165°36'7 7.0 270 / 301015.5 0.5 1.5 9.0 6.8-8.0
2016-Jun-24 14:00N 54°12' W 165°48'632.7 280 / 341016.3 8.5 7.2 8.2
2016-Jun-24 13:49N 54°06' W 165°48'6 7.3 270 / 31 8.5 8.2
2016-Jun-24 13:00N 54°12' W 165°48'636.0 260 / 401015.8 8.6 7.1 8.2
2016-Jun-24 12:50N 54°06' W 165°48'6 7.2 270 / 40 8.5 8.2
2016-Jun-24 12:00N 54°12' W 165°48'640.0 280 / 391015.8 9.0 7.4 8.2
2016-Jun-24 11:51N 54°06' W 165°48'6 7.1 270 / 43 8.8 8.3
2016-Jun-24 11:00N 54°12' W 165°48'645.0 270 / 391015.6 8.6 7.1 8.3
2016-Jun-24 10:52N 54°06' W 165°48'6 6.9 270 / 44 8.7 8.3
2016-Jun-24 10:00N 54°12' W 165°48'651.4 280 / 391015.6 9.7 7.3 8.2
2016-Jun-24 09:53N 54°06' W 165°48'6 6.8 280 / 39 9.6 8.2
2016-Jun-24 09:00N 54°12' W 165°48'651.4 280 / 421016.4 10.9 7.6 8.5
2016-Jun-24 08:53N 54°06' W 165°48'6 6.8 280 / 40 10.8 8.5
2016-Jun-24 08:00N 54°12' W 165°48'660.0 260 / 261017.0 14.2 7.7 8.5
2016-Jun-24 07:54N 54°06' W 165°48'6 6.7 270 / 20 13.8 8.5
2016-Jun-24 07:00N 54°12' W 165°48'442.1 280 / 261017.1 11.0 7.4 8.1
2016-Jun-24 06:55N 54°12' W 165°42'1213.1 280 / 32 11.5 8.1
2016-Jun-24 06:00N 54°24' W 165°42'7104.2 250 / 291017.7 8.3 7.7 8.3
2016-Jun-24 05:56N 54°18' W 165°36'1213.4 260 / 29 8.3 8.3
2016-Jun-24 05:00N 54°30' W 165°42'352.3 260 / 311017.4 8.3 7.8 8.6
2016-Jun-24 04:56N 54°30' W 165°36'1213.4 260 / 34 8.3 8.6
2016-Jun-24 04:00N 54°42' W 165°42'7138.6 260 / 301017.4 8.1 8.0 8.5
2016-Jun-24 03:57N 54°36' W 165°36'6 6.3 260 / 32 8.0 8.5
2016-Jun-24 03:00N 54°42' W 165°36'3104.0 260 / 301015.6 2.2 2.5 8.5 7.5-8.5
2016-Jun-24 02:58N 54°42' W 165°42'1212.4 260 / 30 7.9 8.5
2016-Jun-24 02:00N 54°54' W 165°42'0 0.0 260 / 281017.3 7.9 7.5 8.5
2016-Jun-24 01:59N 54°54' W 165°42'1212.2 260 / 30 8.0 8.4
2016-Jun-24 01:00N 55°06' W 165°42'7 6.9 270 / 281017.3 7.8 7.1 8.7
2016-Jun-24 00:00N 55°12' W 165°36'1818.3 270 / 241015.3 5.4 2.0 8.1 7.0-9.1
2016-Jun-23 23:00N 55°30' W 165°42'6180.0 280 / 261016.3 8.3 7.0 8.7
2016-Jun-23 22:58N 55°24' W 165°42'1212.4 280 / 27 8.4 8.7
2016-Jun-23 22:00N 55°36' W 165°42'0 0.0 280 / 281015.4 8.3 7.2 9.3
2016-Jun-23 21:59N 55°36' W 165°42'1212.2 290 / 26 8.4 9.3
2016-Jun-23 21:00N 55°48' W 165°42'1212.0 280 / 261014.4 5.4 1.5 8.9 8.2 9.3
2016-Jun-23 20:00N 56°00' W 165°42'0 0.0 290 / 231013.5 8.9 8.3 9.3
2016-Jun-23 19:40N 56°00' W 165°42'1218.7 290 / 23 8.9 9.4
2016-Jun-23 19:00N 56°12' W 165°48'721.7 270 / 181012.8 9.0 8.5 9.3
2016-Jun-23 18:41N 56°06' W 165°42'6 8.8 270 / 16 8.6 9.3
2016-Jun-23 18:00N 56°12' W 165°42'0 0.0 270 / 171012.6 8.8 7.7 9.3
2016-Jun-23 17:42N 56°12' W 165°42'0 0.0 270 / 17 8.7 9.3
2016-Jun-23 17:00N 56°12' W 165°42'621.2 260 / 191012.4 8.9 7.8 9.3
2016-Jun-23 16:43N 56°06' W 165°42'1217.4 260 / 18 8.8 9.3
2016-Jun-23 16:00N 56°18' W 165°48'312.5 270 / 211011.6 8.3 7.5 9.2
2016-Jun-23 15:44N 56°18' W 165°42'7 9.4 270 / 20 8.5 9.3
2016-Jun-23 15:00N 56°24' W 165°36'727.4 260 / 191009.010.8 1.5 8.8 7.7-9.3
2016-Jun-23 14:45N 56°30' W 165°42'6 8.0 260 / 18 8.7 9.3
2016-Jun-23 14:00N 56°36' W 165°42'0 0.0 260 / 161010.6 8.6 7.8 9.3
2016-Jun-23 13:45N 56°36' W 165°42'3 4.4 250 / 14 9.1 9.3
2016-Jun-23 13:00N 56°36' W 165°48'314.2 250 / 141010.8 8.2 7.8 9.3
2016-Jun-23 12:46N 56°36' W 165°42'0 0.0 250 / 14 8.2 9.3
2016-Jun-23 12:00N 56°36' W 165°42'0 0.0 240 / 161010.810.8 1.5 8.9 8.4 9.3
2016-Jun-23 11:47N 56°36' W 165°42'0 0.0 240 / 13 8.9 9.3
2016-Jun-23 11:00N 56°36' W 165°42'0 0.0 220 / 181011.0 8.3 7.8 9.3
2016-Jun-23 10:48N 56°36' W 165°42'0 0.0 220 / 19 8.3 9.3
2016-Jun-23 10:00N 56°36' W 165°42'0 0.0 220 / 61010.9 8.3 7.9 9.3
2016-Jun-23 09:49N 56°36' W 165°42'0 0.0 220 / 7 8.3 9.3
2016-Jun-23 09:00N 56°36' W 165°42'0 0.0 210 / 211011.4 8.5 8.1 9.3
2016-Jun-23 08:49N 56°36' W 165°42'3 4.0 220 / 7 8.5 9.3
2016-Jun-23 08:00N 56°36' W 165°48'319.8 220 / 211011.6 8.4 8.1 9.3
2016-Jun-23 07:50N 56°36' W 165°42'1214.9 220 / 21 8.4 9.3
2016-Jun-23 07:00N 56°48' W 165°48'745.6 220 / 211011.3 8.5 7.8 9.3
2016-Jun-23 06:51N 56°42' W 165°42'1214.6 220 / 21 8.5 9.3
2016-Jun-23 06:00N 56°54' W 165°36'324.6 220 / 241009.4 5.4 3.5 8.7 7.8-9.3
2016-Jun-23 05:52N 56°54' W 165°42'7 7.9 220 / 23 8.7 9.3
2016-Jun-23 05:00N 57°00' W 165°48'328.0 210 / 261011.4 8.6 7.3 9.1
2016-Jun-23 04:53N 57°00' W 165°42'7 7.7 210 / 27 8.6 9.1
2016-Jun-23 04:00N 57°06' W 165°48'758.5 200 / 231011.9 8.8 7.3 9.2
2016-Jun-23 03:53N 57°00' W 165°42'3 3.7 200 / 22 8.7 9.2
2016-Jun-23 03:00N 57°00' W 165°48'332.7 200 / 251012.2 8.8 7.3 9.2
2016-Jun-23 02:54N 57°00' W 165°42'7 7.6 200 / 24 8.9 9.2
2016-Jun-23 02:00N 57°06' W 165°48'782.0 190 / 241012.7 10.1 8.3 9.2
2016-Jun-23 01:55N 57°00' W 165°42'3 3.6 200 / 23 8.9 9.3
2016-Jun-23 01:00N 57°00' W 165°48'7102.5 200 / 191013.4 8.6 7.5 9.2
2016-Jun-23 00:56N 56°54' W 165°42'1213.3 190 / 21 8.6 9.2
2016-Jun-23 00:00N 57°06' W 165°48'1212.0 200 / 201013.6 8.5 7.6 9.1
2016-Jun-22 23:00N 57°18' W 165°48'6180.0 190 / 191013.7 8.6 7.5 9.2
2016-Jun-22 22:58N 57°12' W 165°48'1111.8 190 / 19 8.6 9.2
2016-Jun-22 22:00N 57°18' W 165°30'0 0.0 190 / 231014.6 8.5 6.7 9.5
2016-Jun-22 21:58N 57°18' W 165°30'1313.4 180 / 21 8.2 9.5
2016-Jun-22 21:00N 57°18' W 165°06'3194.5 190 / 191013.3 5.4 2.0 9.1 7.6-9.5
2016-Jun-22 20:59N 57°18' W 165°12'1212.2 190 / 21 9.1 9.5
2016-Jun-22 20:00N 57°06' W 165°12'365.2 180 / 121016.0 9.7 8.1 9.5
2016-Jun-22 19:57N 57°06' W 165°06'18 9.4 190 / 16 9.6 9.5
2016-Jun-22 18:00N 56°48' W 165°12'3 3.3 200 / 131016.8 9.3 7.2 9.6
2016-Jun-22 17:00N 56°48' W 165°06'617.1 240 / 161016.8 8.6 7.5 9.7
2016-Jun-22 16:39N 56°42' W 165°06'710.5 240 / 19 8.6 9.7
2016-Jun-22 16:00N 56°48' W 165°12'719.6 220 / 181017.1 9.0 8.6 9.6
2016-Jun-22 15:39N 56°42' W 165°06'710.5 220 / 19 9.0 9.6
2016-Jun-22 15:00N 56°36' W 165°12'1212.4 220 / 181017.410.8 1.0 8.8 8.7 9.6
2016-Jun-22 14:00N 56°24' W 165°06'0 0.0 230 / 161017.5 9.1 9.0 9.6
2016-Jun-22 13:41N 56°24' W 165°06'6 8.8 220 / 15 9.2 9.6
2016-Jun-22 13:00N 56°18' W 165°06'0 0.0 200 / 171018.0 9.2 9.0 9.6
2016-Jun-22 12:42N 56°18' W 165°06'0 0.0 200 / 21 9.2 9.6
2016-Jun-22 12:00N 56°18' W 165°06'0 0.0 200 / 171018.2 9.2 9.1 9.7
2016-Jun-22 11:43N 56°18' W 165°06'0 0.0 200 / 17 9.2 9.7
2016-Jun-22 11:00N 56°18' W 165°06'0 0.0 180 / 181018.7 9.3 9.0 9.6
2016-Jun-22 10:43N 56°18' W 165°06'3 4.6 200 / 17 9.3 9.7
2016-Jun-22 10:00N 56°18' W 165°12'312.5 190 / 151018.9 9.8 9.3 9.7
2016-Jun-22 09:44N 56°18' W 165°06'0 0.0 180 / 13 9.6 9.6
2016-Jun-22 09:00N 56°18' W 165°06'0 0.0 190 / 141019.2 9.9 9.3 9.7
2016-Jun-22 08:45N 56°18' W 165°06'1216.0 170 / 14 9.9 9.7
2016-Jun-22 08:00N 56°30' W 165°06'625.7 160 / 121019.4 10.2 9.7 9.7
2016-Jun-22 07:46N 56°24' W 165°06'6 7.8 160 / 13 10.3 9.7
2016-Jun-22 07:00N 56°18' W 165°06'627.7 150 / 101019.8 9.8 9.3 9.7
2016-Jun-22 06:47N 56°12' W 165°06'3010.8 150 / 10 9.8 9.7
2016-Jun-22 04:00N 55°42' W 165°06'3 3.4 160 / 61020.3 10.1 9.5 9.6
2016-Jun-22 03:00N 55°42' W 165°12'320.3 150 / 61020.7 9.9 9.1 9.7
2016-Jun-22 02:50N 55°42' W 165°06'0 0.0 150 / 6 9.9 9.7
2016-Jun-22 02:00N 55°42' W 165°06'0 0.0 120 / 121021.1 9.6 8.9 9.6
2016-Jun-22 01:51N 55°42' W 165°06'1214.1 110 / 12 9.6 9.6
2016-Jun-22 01:00N 55°30' W 165°06'0 0.0 140 / 161021.7 9.9 9.1 9.1
2016-Jun-22 00:52N 55°30' W 165°06'6 6.9 130 / 16 9.9 9.1
2016-Jun-22 00:00N 55°24' W 165°06'6 6.0 110 / 101022.3 9.5 8.6 9.3
2016-Jun-21 23:00N 55°18' W 165°06'0 0.0 090 / 91023.0 9.9 8.8 9.2
2016-Jun-21 22:53N 55°18' W 165°06'0 0.0 090 / 9 9.9 9.2
2016-Jun-21 22:00N 55°18' W 165°06'660.0 100 / 81023.0 9.5 8.4 9.0
2016-Jun-21 21:54N 55°12' W 165°06'7 7.7 100 / 8 9.4 9.0
2016-Jun-21 21:00N 55°18' W 165°00'341.0 100 / 131021.410.8 0.5 9.1 8.4-8.8
2016-Jun-21 20:55N 55°18' W 165°06'1213.1 100 / 11 9.1 8.8
2016-Jun-21 20:00N 55°06' W 165°06'0 0.0 090 / 91023.5 8.9 8.0 8.8
2016-Jun-21 19:56N 55°06' W 165°06'1212.9 100 / 10 8.9 8.8
2016-Jun-21 19:00N 54°54' W 165°06'0 0.0 120 / 111023.3 9.3 7.7 8.2
2016-Jun-21 18:57N 54°54' W 165°06'6 6.3 110 / 9 9.3 8.1
2016-Jun-21 18:00N 55°00' W 165°06'6120.0 120 / 41024.3 9.2 8.3 8.2
2016-Jun-21 17:57N 54°54' W 165°06'0 0.0 130 / 5 9.0 8.2
2016-Jun-21 17:00N 54°54' W 165°06'0 0.0 090 / 91023.7 8.9 7.4 7.8
2016-Jun-21 16:58N 54°54' W 165°06'6 6.2 090 / 11 8.6 7.7
2016-Jun-21 16:00N 54°48' W 165°06'0 0.0 100 / 181023.5 9.3 8.1 8.2
2016-Jun-21 15:59N 54°48' W 165°06'0 0.0 090 / 12 9.1 8.3
2016-Jun-21 15:00N 54°48' W 165°06'6 6.0 070 / 91023.9 9.0 7.6 8.2
2016-Jun-21 14:00N 54°42' W 165°06'640.0 340 / 31024.4 8.9 7.8 8.0
2016-Jun-21 13:51N 54°36' W 165°06'6 7.1 350 / 2 8.8 8.0
2016-Jun-21 13:00N 54°42' W 165°06'640.0 300 / 51024.4 8.2 7.1 7.9
2016-Jun-21 12:51N 54°36' W 165°06'3 4.1 300 / 5 8.2 8.0
2016-Jun-21 12:00N 54°36' W 165°00'326.1 080 / 51022.510.8 0.510.0 7.1-7.8
2016-Jun-21 11:52N 54°36' W 165°06'6 6.9 070 / 3 8.3 7.7
2016-Jun-21 11:00N 54°42' W 165°06'651.4 200 / 81025.3 8.6 7.2 7.7
2016-Jun-21 10:53N 54°36' W 165°06'6 6.8 210 / 9 8.6 7.7
2016-Jun-21 10:00N 54°42' W 165°06'769.3 180 / 41025.0 8.5 7.0 7.9
2016-Jun-21 09:54N 54°36' W 165°00'7 7.7 180 / 4 8.5 8.0
2016-Jun-21 09:00N 54°42' W 165°06'672.0 130 / 51024.9 8.6 7.2 7.8
2016-Jun-21 08:55N 54°36' W 165°06'6 6.5 130 / 5 8.7 7.8
2016-Jun-21 08:00N 54°42' W 165°06'341.6 250 / 61024.9 8.0 6.9 8.4
2016-Jun-21 07:55N 54°42' W 165°00'7 7.6 240 / 6 7.9 8.3
2016-Jun-21 07:00N 54°36' W 165°06'0 0.0 030 / 61024.9 8.5 7.2 7.8
2016-Jun-21 06:56N 54°36' W 165°06'1212.9 020 / 5 8.3 7.9
2016-Jun-21 06:00N 54°24' W 165°06'0 0.0 090 / 31024.7 7.5 6.3 7.4
2016-Jun-21 05:57N 54°24' W 165°06'6 6.3 100 / 2 7.6 7.3
2016-Jun-21 05:00N 54°18' W 165°06'7208.5 040 / 31024.8 7.5 6.1 7.5
2016-Jun-21 04:58N 54°12' W 165°00'1312.9 050 / 4 7.4 7.5
2016-Jun-21 04:00N 54°24' W 165°06'0 0.0 210 / 11024.9 7.8 6.3 8.1
2016-Jun-21 03:59N 54°24' W 165°06'1212.2 260 / 1 7.9 7.8
2016-Jun-21 03:00N 54°36' W 165°06'6360.0 340 / 51024.7 8.2 6.7 8.2
2016-Jun-21 02:59N 54°30' W 165°06'1414.1 310 / 3 8.4 8.1
2016-Jun-21 02:00N 54°42' W 164°54'3 9.5 1024.5 8.6 6.2 9.4
2016-Jun-21 01:38N 54°42' W 164°48'1219.7 360 / 6 8.8 9.3
2016-Jun-21 01:00N 54°54' W 164°42'3 9.9 310 / 31024.7 8.7 7.7 9.5
2016-Jun-21 00:39N 54°54' W 164°36'1219.2 290 / 4 8.5 9.3
2016-Jun-21 00:00N 55°06' W 164°30'3 3.4 280 / 41024.8 5.4 2.0 8.7 7.7 9.6
2016-Jun-20 23:00N 55°06' W 164°36'310.8 290 / 41024.7 8.6 7.9 9.1
2016-Jun-20 22:41N 55°06' W 164°30'0 0.0 290 / 6 8.1 9.1
2016-Jun-20 22:00N 55°06' W 164°30'311.4 260 / 101024.5 7.8 7.1 9.3
2016-Jun-20 21:42N 55°06' W 164°24'6 8.6 250 / 11 7.9 8.7
2016-Jun-20 21:00N 55°00' W 164°24'621.2 250 / 111024.3 9.5 9.0 8.9
2016-Jun-20 20:43N 54°54' W 164°24'1217.4 240 / 9 9.5 8.7
2016-Jun-20 20:00N 55°06' W 164°30'0 0.0 250 / 131023.9 7.5 7.0 8.8
2016-Jun-20 19:43N 55°06' W 164°30'1216.7 250 / 12 7.7 9.0
2016-Jun-20 19:00N 55°18' W 164°30'0 0.0 260 / 151023.1 7.7 7.3 8.9
2016-Jun-20 18:44N 55°18' W 164°30'6 8.2 260 / 14 7.9 9.3
2016-Jun-20 18:00N 55°24' W 164°30'0 0.0 260 / 141022.4 8.0 7.5 9.2
2016-Jun-20 17:45N 55°24' W 164°30'6 8.0 260 / 16 7.9 9.2
2016-Jun-20 17:00N 55°30' W 164°30'625.7 250 / 151022.1 8.0 7.4 9.3
2016-Jun-20 16:46N 55°24' W 164°30'6 7.8 240 / 16 8.2 9.3
2016-Jun-20 16:00N 55°30' W 164°30'0 0.0 260 / 171021.5 8.1 7.3 9.3
2016-Jun-20 15:47N 55°30' W 164°30'1215.9 260 / 17 8.0 9.3
2016-Jun-20 15:00N 55°42' W 164°24'316.9 260 / 191018.7 5.4 2.5 8.2 7.6-9.5
2016-Jun-20 14:48N 55°42' W 164°30'6 7.5 260 / 19 8.1 9.5
2016-Jun-20 14:00N 55°48' W 164°30'0 0.0 250 / 191020.3 8.1 7.4 9.4
2016-Jun-20 13:48N 55°48' W 164°30'0 0.0 250 / 20 8.1 9.4
2016-Jun-20 13:00N 55°48' W 164°30'0 0.0 240 / 201019.8 8.0 7.3 9.4
2016-Jun-20 12:49N 55°48' W 164°30'0 0.0 240 / 20 8.0 9.4
2016-Jun-20 12:00N 55°48' W 164°30'0 0.0 240 / 221019.5 8.1 7.1 9.4
2016-Jun-20 11:50N 55°48' W 164°30'6 7.2 250 / 23 8.2 9.4
2016-Jun-20 11:00N 55°54' W 164°30'640.0 240 / 221019.4 8.2 7.2 9.3
2016-Jun-20 10:51N 55°48' W 164°30'6 7.1 230 / 20 8.3 9.3
2016-Jun-20 10:00N 55°54' W 164°30'645.0 230 / 231019.0 8.1 7.1 9.1
2016-Jun-20 09:52N 55°48' W 164°30'7 7.9 240 / 21 8.1 9.1
2016-Jun-20 09:00N 55°54' W 164°24'651.4 230 / 241018.5 8.2 6.9 9.2
2016-Jun-20 08:53N 55°48' W 164°24'7 7.8 230 / 24 8.2 9.2
2016-Jun-20 08:00N 55°54' W 164°30'651.4 240 / 231018.1 8.2 6.9 9.4
2016-Jun-20 07:53N 55°48' W 164°30'6 6.8 240 / 24 8.2 9.4
2016-Jun-20 07:00N 55°54' W 164°30'768.8 230 / 251017.7 8.4 7.2 9.5
2016-Jun-20 06:54N 55°48' W 164°24'0 0.0 230 / 25 8.4 9.5
2016-Jun-20 06:00N 55°48' W 164°24'340.5 230 / 241015.5 5.4 2.0 8.3 7.1-9.3
2016-Jun-20 05:55N 55°48' W 164°30'1213.1 240 / 27 8.3 9.3
2016-Jun-20 05:00N 56°00' W 164°30'0 0.0 240 / 241016.6 8.7 7.2 9.6
2016-Jun-20 04:56N 56°00' W 164°30'6 6.4 240 / 25 8.6 9.6
2016-Jun-20 04:00N 56°06' W 164°30'6120.0 230 / 181016.2 8.7 7.6 9.6
2016-Jun-20 03:57N 56°00' W 164°30'6 6.3 230 / 19 8.8 9.6
2016-Jun-20 03:00N 56°06' W 164°30'6120.0 230 / 231016.1 8.9 7.2 9.5
2016-Jun-20 02:57N 56°00' W 164°30'6 6.3 230 / 22 8.9 9.5
2016-Jun-20 02:00N 56°06' W 164°30'6180.0 220 / 241016.1 8.8 7.8 9.6
2016-Jun-20 01:58N 56°00' W 164°30'6 6.2 220 / 23 9.0 9.5
2016-Jun-20 01:00N 56°06' W 164°30'0 0.0 240 / 261015.5 8.5 7.5 9.5
2016-Jun-20 00:59N 56°06' W 164°30'7 7.0 240 / 27 8.7 9.5
2016-Jun-20 00:00N 56°12' W 164°36'3 3.3 230 / 221014.910.8 2.0 8.7 6.7 9.5
2016-Jun-19 23:00N 56°12' W 164°30'0 0.0 220 / 201014.5 8.7 6.8 9.6
2016-Jun-19 22:53N 56°12' W 164°30'0 0.0 220 / 20 8.6 9.6
2016-Jun-19 22:00N 56°12' W 164°30'0 0.0 240 / 221013.8 8.9 6.1 9.5
2016-Jun-19 21:54N 56°12' W 164°30'1213.3 240 / 22 8.8 9.5
2016-Jun-19 21:00N 56°24' W 164°30'0 0.0 240 / 251012.8 8.7 5.7 9.5
2016-Jun-19 20:55N 56°24' W 164°30'1213.1 240 / 25 8.7 9.4
2016-Jun-19 20:00N 56°36' W 164°30'0 0.0 250 / 241012.0 8.8 5.3 9.7
2016-Jun-19 19:56N 56°36' W 164°30'7 7.3 250 / 23 8.8 9.7
2016-Jun-19 19:00N 56°42' W 164°36'7136.9 240 / 181011.3 8.7 5.4 9.6
2016-Jun-19 18:57N 56°36' W 164°30'6 6.3 240 / 21 8.6 9.6
2016-Jun-19 18:00N 56°42' W 164°30'0 0.0 250 / 181010.4 8.8 5.7 9.7
2016-Jun-19 17:57N 56°42' W 164°30'0 0.0 260 / 20 8.7 9.7
2016-Jun-19 17:00N 56°42' W 164°30'   260 / 271009.4 8.8 5.9 9.7
Track history (hours):
 
Tides and Currents Weather Stations Pressure Air Temp Water Temp Dewpoint Dewpoint Depression Visibility Wind Speed Wind Dir Waves Ship Positions

Oceanographic research ship Oscar Dyson (USA)

Ship's website: http://www.moc.noaa.gov/od/

Detailed information on ship capabilities available from University of Delaware's Ocean Information Center and ARCUS's ALIAS (Arctic Logistics Information and Support) project.

Last reported at 2016-Jun-29 17:00 UTC. Time now 2016-Jun-29 18:23 UTC.
Position N 57°42' W 167°42'.

Type: Ship. MMSI: 369959000.

Wind from 120 at 18 knots

Barometer 1013.8 mb
Air temperature 10.4 ° C
Dewpoint 9.3 ° C
Water temperature 9.2 ° C

Date/timePositionNaut miles runAvg speedWind from/ knotsBaromVisibWave heightAir tempDewpointWater temp
2016-Jun-29 17:00N 57°42' W 167°42'0 0.0 120 / 181013.8 10.4 9.3 9.2
2016-Jun-29 16:58N 57°42' W 167°42'1212.4 120 / 18 10.4 9.2
2016-Jun-29 16:00N 57°30' W 167°42'3193.4 120 / 181013.6 10.1 9.0 9.2
2016-Jun-29 15:59N 57°30' W 167°36'1212.6 120 / 18 10.1 9.2
2016-Jun-29 15:00N 57°18' W 167°42'6 6.0 120 / 151013.6 9.7 9.2 9.2
2016-Jun-29 14:00N 57°12' W 167°42'722.8 110 / 151013.4 9.6 9.1 9.5
2016-Jun-29 13:42N 57°06' W 167°36'6 8.6 120 / 14 9.7 9.4
2016-Jun-29 13:00N 57°12' W 167°36'620.0 130 / 141013.5 9.7 9.1 9.4
2016-Jun-29 12:42N 57°06' W 167°36'7 9.8 120 / 15 9.8 9.4
2016-Jun-29 12:00N 57°12' W 167°42'724.1 120 / 161013.5 9.8 9.0 9.4
2016-Jun-29 11:43N 57°06' W 167°36'3 4.5 120 / 17 9.8 9.4
2016-Jun-29 11:00N 57°06' W 167°42'312.2 130 / 161013.6 10.0 9.1 9.3
2016-Jun-29 10:44N 57°06' W 167°36'7 9.3 130 / 16 10.0 9.3
2016-Jun-29 10:00N 57°12' W 167°42'727.3 140 / 161013.6 10.0 9.1 9.4
2016-Jun-29 09:45N 57°06' W 167°36'3 4.3 130 / 17 10.0 9.4
2016-Jun-29 09:00N 57°06' W 167°42'314.0 140 / 171013.5 10.1 9.0 9.3
2016-Jun-29 08:46N 57°06' W 167°36'0 0.0 140 / 18 10.1 9.4
2016-Jun-29 08:00N 57°06' W 167°36'0 0.0 130 / 181013.5 10.1 9.1 9.5
2016-Jun-29 07:46N 57°06' W 167°36'7 8.9 130 / 17 10.0 9.5
2016-Jun-29 07:00N 57°12' W 167°42'731.5 130 / 161013.3 9.7 8.9 9.5
2016-Jun-29 06:47N 57°06' W 167°36'0 0.0 130 / 19 9.7 9.5
2016-Jun-29 06:00N 57°06' W 167°36'1212.0 150 / 221013.610.8 1.5 9.9 8.8 9.4
2016-Jun-29 05:00N 56°54' W 167°36'632.7 140 / 211013.5 9.8 8.7 9.6
2016-Jun-29 04:49N 56°48' W 167°36'6 7.3 140 / 21 9.8 9.6
2016-Jun-29 04:00N 56°42' W 167°36'636.0 150 / 221013.2 9.7 8.8 9.5
2016-Jun-29 03:50N 56°36' W 167°36'0 0.0 150 / 23 9.7 9.5
2016-Jun-29 03:00N 56°36' W 167°36'0 0.0 150 / 231013.4 9.6 8.5 9.6
2016-Jun-29 02:50N 56°36' W 167°36'6 7.2 150 / 25 9.5 9.6
2016-Jun-29 02:00N 56°30' W 167°36'322.1 150 / 201013.7 9.6 8.5 9.7
2016-Jun-29 01:51N 56°30' W 167°30'3 3.9 150 / 22 9.6 9.7
2016-Jun-29 01:00N 56°30' W 167°36'0 0.0 150 / 221014.0 9.3 8.2 9.7
2016-Jun-29 00:52N 56°30' W 167°36'0 0.0 150 / 21 9.3 9.7
2016-Jun-29 00:00N 56°30' W 167°36'1212.0 150 / 221014.3 9.4 8.2 9.7
2016-Jun-28 23:00N 56°18' W 167°36'333.3 140 / 231014.2 9.2 8.0 9.7
2016-Jun-28 22:54N 56°18' W 167°30'18 9.5 140 / 23 9.2 9.7
2016-Jun-28 21:00N 56°00' W 167°30'672.0 150 / 201014.5 10.2 8.8 9.9
2016-Jun-28 20:55N 55°54' W 167°30'6 6.5 150 / 19 9.8 9.8
2016-Jun-28 20:00N 56°00' W 167°30'690.0 130 / 161014.8 8.8 8.1 9.7
2016-Jun-28 19:56N 55°54' W 167°30'6 6.4 140 / 17 8.8 9.7
2016-Jun-28 19:00N 56°00' W 167°30'6120.0 150 / 171014.9 9.1 9.1 9.7
2016-Jun-28 18:57N 55°54' W 167°30'7 7.2 150 / 15 9.2 9.7
2016-Jun-28 18:00N 56°00' W 167°36'7206.3 150 / 151015.1 7.8 7.8 9.7
2016-Jun-28 17:58N 55°54' W 167°30'0 0.0 160 / 15 8.1 9.7
2016-Jun-28 17:00N 55°54' W 167°30'6180.0 150 / 161015.5 8.0 8.0 9.8
2016-Jun-28 16:58N 55°48' W 167°30'6 6.2 160 / 15 8.1 9.9
2016-Jun-28 16:00N 55°42' W 167°30'6 6.0 150 / 171015.4 7.4 7.4 9.3
2016-Jun-28 15:00N 55°36' W 167°30'6 6.0 120 / 131015.5 0.5 0.5 7.2 7.2 9.1
2016-Jun-28 14:00N 55°30' W 167°30'0 0.0 150 / 121015.8 7.0 7.0 9.5
2016-Jun-28 13:52N 55°30' W 167°30'0 0.0 150 / 12 6.9 9.5
2016-Jun-28 13:00N 55°30' W 167°30'0 0.0 140 / 101016.4 6.9 6.9 9.7
2016-Jun-28 12:53N 55°30' W 167°30'3 3.8 150 / 10 6.8 9.7
2016-Jun-28 12:00N 55°30' W 167°24'334.0 160 / 91015.1 0.5 7.5 6.8-9.6
2016-Jun-28 11:54N 55°30' W 167°30'0 0.0 150 / 12 6.6 9.6
2016-Jun-28 11:00N 55°30' W 167°30'0 0.0 140 / 91016.9 7.1 7.1 9.6
2016-Jun-28 10:54N 55°30' W 167°30'0 0.0 140 / 9 6.9 9.6
2016-Jun-28 10:00N 55°30' W 167°30'0 0.0 160 / 101017.4 6.6 6.6 9.8
2016-Jun-28 09:55N 55°30' W 167°30'0 0.0 150 / 12 6.6 9.8
2016-Jun-28 09:00N 55°30' W 167°30'0 0.0 130 / 111017.2 6.3 6.3 9.9
2016-Jun-28 08:56N 55°30' W 167°30'0 0.0 130 / 11 6.4 9.9
2016-Jun-28 08:00N 55°30' W 167°30'0 0.0 150 / 111017.4 6.5 6.510.0
2016-Jun-28 07:57N 55°30' W 167°30'0 0.0 140 / 10 6.1 10.0
2016-Jun-28 07:00N 55°30' W 167°30'6180.0 150 / 71017.8 6.0 5.810.0
2016-Jun-28 06:58N 55°24' W 167°30'6 6.2 160 / 7 6.1 10.0
2016-Jun-28 06:00N 55°30' W 167°30'0 0.0 180 / 71018.0 6.6 6.310.0
2016-Jun-28 05:58N 55°30' W 167°30'6 6.2 160 / 8 6.7 10.0
2016-Jun-28 05:00N 55°24' W 167°30'7414.1 180 / 61018.2 7.0 6.4 9.3
2016-Jun-28 04:59N 55°18' W 167°24'0 0.0 150 / 8 6.8 9.4
2016-Jun-28 04:00N 55°18' W 167°24'7 6.9 140 / 91018.3 7.2 7.3 9.6
2016-Jun-28 03:00N 55°24' W 167°30'6180.0 140 / 71018.5 6.3 5.8 9.5
2016-Jun-28 02:58N 55°18' W 167°30'0 0.0 150 / 7 6.4 9.5
2016-Jun-28 02:00N 55°18' W 167°30'3204.9 180 / 51019.1 6.7 6.3 9.6
2016-Jun-28 01:59N 55°18' W 167°24'7 7.0 190 / 6 6.6 9.5
2016-Jun-28 01:00N 55°24' W 167°30'6360.0 150 / 71019.2 6.0 5.8 9.4
2016-Jun-28 00:59N 55°18' W 167°30'0 0.0 170 / 7 6.2 9.5
2016-Jun-28 00:00N 55°18' W 167°30'3612.1 150 / 51019.3 0.5 0.5 6.4 6.1 9.6
2016-Jun-27 21:00N 54°42' W 167°24'341.6 170 / 41020.0 5.0 5.0 9.3
2016-Jun-27 20:55N 54°42' W 167°18'910.0 140 / 3 5.3 9.3
2016-Jun-27 20:00N 54°36' W 167°06'0 0.0 120 / 41020.1 5.4 5.4 9.2
2016-Jun-27 19:56N 54°36' W 167°06'9 9.8 120 / 3 5.5 9.3
2016-Jun-27 19:00N 54°30' W 166°54'6120.0 120 / 31020.1 4.9 4.9 9.1
2016-Jun-27 18:57N 54°24' W 166°54'7 7.3 100 / 3 5.0 9.1
2016-Jun-27 18:00N 54°30' W 166°48'0 0.0 200 / 11020.3 4.6 4.6 8.7
2016-Jun-27 17:58N 54°30' W 166°48'1212.4 270 / 2 4.7 8.8
2016-Jun-27 17:00N 54°42' W 166°48'6360.0 300 / 41020.3 5.0 5.0 8.8
2016-Jun-27 16:59N 54°36' W 166°48'1818.6 300 / 2 5.0 8.8
2016-Jun-27 16:00N 54°54' W 166°54'7415.4 280 / 51020.2 4.9 4.9 9.0
2016-Jun-27 15:59N 54°48' W 166°48'1212.2 300 / 4 5.1 9.0
2016-Jun-27 15:00N 55°00' W 166°48'1212.5 330 / 21018.7 0.3 0.5 5.2 5.5 9.5
2016-Jun-27 14:00N 55°12' W 166°54'0 0.0 290 / 51020.4 5.6 5.6 9.5
2016-Jun-27 13:00N 55°12' W 166°54'325.7 250 / 51020.4 5.4 5.4 9.6
2016-Jun-27 12:52N 55°12' W 166°48'3 4.0 260 / 5 5.4 9.6
2016-Jun-27 12:00N 55°12' W 166°54'329.4 270 / 71020.6 5.8 5.8 9.6
2016-Jun-27 11:53N 55°12' W 166°48'3 3.9 270 / 7 5.8 9.6
2016-Jun-27 11:00N 55°12' W 166°54'0 0.0 230 / 51020.8 5.9 5.9 9.6
2016-Jun-27 10:54N 55°12' W 166°54'0 0.0 230 / 6 6.0 9.6
2016-Jun-27 10:00N 55°12' W 166°54'341.1 210 / 31020.7 6.1 6.1 9.6
2016-Jun-27 09:55N 55°12' W 166°48'3 3.7 220 / 4 6.3 9.6
2016-Jun-27 09:00N 55°12' W 166°54'0 0.0 260 / 21020.9 6.3 6.3 9.6
2016-Jun-27 08:55N 55°12' W 166°54'0 0.0 250 / 2 6.5 9.6
2016-Jun-27 08:00N 55°12' W 166°54'7103.7 280 / 41020.9 6.5 6.4 9.5
2016-Jun-27 07:56N 55°06' W 166°48'1213.4 260 / 5 6.5 9.5
2016-Jun-27 07:00N 55°18' W 166°54'368.3 300 / 81020.6 6.5 6.4 9.6
2016-Jun-27 06:57N 55°18' W 166°48'1213.1 290 / 9 6.6 9.6
2016-Jun-27 06:00N 55°30' W 166°54'0 0.0 290 / 61020.5 5.4 7.1 6.8 9.5
2016-Jun-27 05:58N 55°30' W 166°54'1212.4 280 / 6 7.2 9.5
2016-Jun-27 05:00N 55°42' W 166°54'0 0.0 290 / 71020.4 7.4 7.1 9.5
2016-Jun-27 04:59N 55°42' W 166°54'1212.2 270 / 6 7.4 9.5
2016-Jun-27 04:00N 55°54' W 166°54'0 0.0 290 / 101020.6 7.6 7.1 9.2
2016-Jun-27 03:59N 55°54' W 166°54'1212.7 300 / 11 7.5 9.2
2016-Jun-27 03:00N 56°06' W 167°00'3 3.3 270 / 71020.6 8.3 8.0 9.7
2016-Jun-27 02:00N 56°06' W 166°54'0 0.0 270 / 81020.7 7.8 7.8 9.6
2016-Jun-27 01:59N 56°06' W 166°54'0 0.0 280 / 10 8.0 9.6
2016-Jun-27 01:00N 56°06' W 166°54'6360.0 250 / 71020.9 8.3 8.3 9.7
2016-Jun-27 00:59N 56°00' W 166°54'1212.7 250 / 9 8.7 9.7
2016-Jun-27 00:00N 56°12' W 166°48'1413.7 280 / 131019.0 2.2 1.0 8.0 7.7-9.5
2016-Jun-26 23:00N 56°24' W 167°00'328.5 260 / 91020.8 7.5 7.5 9.4
2016-Jun-26 22:53N 56°24' W 166°54'1214.1 260 / 9 7.6 9.4
2016-Jun-26 22:00N 56°36' W 167°00'660.0 270 / 91020.7 7.5 7.5 9.3
2016-Jun-26 21:54N 56°30' W 167°00'7 7.6 270 / 8 7.6 9.3
2016-Jun-26 21:00N 56°36' W 166°54'672.0 260 / 81020.5 7.3 7.3 9.2
2016-Jun-26 20:55N 56°30' W 166°54'7 7.5 260 / 7 7.4 9.2
2016-Jun-26 20:00N 56°36' W 167°00'349.5 280 / 131020.4 7.0 7.0 9.1
2016-Jun-26 19:56N 56°36' W 166°54'1213.3 270 / 12 7.0 9.1
2016-Jun-26 19:00N 56°48' W 167°00'690.0 270 / 121020.3 6.9 6.9 9.1
2016-Jun-26 18:56N 56°42' W 167°00'1819.3 270 / 11 6.9 9.1
2016-Jun-26 18:00N 57°00' W 167°00'6120.0 270 / 121020.3 6.8 6.8 9.1
2016-Jun-26 17:57N 56°54' W 167°00'1818.9 270 / 12 6.9 9.1
2016-Jun-26 17:00N 57°12' W 167°00'6180.0 280 / 111020.2 6.6 6.6 9.0
2016-Jun-26 16:58N 57°06' W 167°00'1818.6 270 / 10 6.7 9.0
2016-Jun-26 16:00N 57°24' W 167°00'6360.0 280 / 111020.0 6.6 6.6 9.0
2016-Jun-26 15:59N 57°18' W 167°00'1212.6 270 / 9 6.6 9.0
2016-Jun-26 15:00N 57°30' W 166°54'1212.4 280 / 91018.2 0.5 1.0 6.8 6.5-9.1
2016-Jun-26 14:00N 57°42' W 167°00'10 9.6 290 / 91019.9 6.7 6.7 9.0
2016-Jun-26 13:00N 57°42' W 166°42'321.4 300 / 121019.7 6.6 6.6 9.2
2016-Jun-26 12:51N 57°42' W 166°36'1011.3 300 / 12 6.7 9.2
2016-Jun-26 12:00N 57°42' W 166°18'324.0 300 / 131017.9 1.0 7.5 6.8-9.3
2016-Jun-26 11:52N 57°42' W 166°24'0 0.0 310 / 12 6.9 9.3
2016-Jun-26 11:00N 57°42' W 166°24'0 0.0 300 / 131019.9 7.0 7.0 9.4
2016-Jun-26 10:52N 57°42' W 166°24'0 0.0 300 / 13 7.0 9.4
2016-Jun-26 10:00N 57°42' W 166°24'0 0.0 300 / 151020.0 7.0 7.0 9.3
2016-Jun-26 09:53N 57°42' W 166°24'0 0.0 300 / 15 6.9 9.3
2016-Jun-26 09:00N 57°42' W 166°24'0 0.0 320 / 141020.0 7.0 7.0 9.3
2016-Jun-26 08:54N 57°42' W 166°24'0 0.0 320 / 14 7.1 9.3
2016-Jun-26 08:00N 57°42' W 166°24'672.0 300 / 151019.9 7.3 7.3 9.3
2016-Jun-26 07:55N 57°36' W 166°24'6 6.5 300 / 15 7.3 9.3
2016-Jun-26 07:00N 57°30' W 166°24'690.0 300 / 141019.9 7.3 7.3 9.3
2016-Jun-26 06:56N 57°24' W 166°24'5411.0 310 / 13 7.3 9.3
2016-Jun-26 02:00N 56°30' W 166°18'3 3.3 310 / 171020.2 7.7 7.4 9.3
2016-Jun-26 01:00N 56°30' W 166°24'6012.0 330 / 171020.2 7.8 7.5 9.3
2016-Jun-25 20:00N 55°30' W 166°18'6 6.0 320 / 191019.4 9.8 7.7 9.2
2016-Jun-25 19:00N 55°36' W 166°18'690.0 340 / 211019.2 8.2 7.9 9.3
2016-Jun-25 18:56N 55°30' W 166°18'6 6.4 340 / 21 8.3 9.3
2016-Jun-25 18:00N 55°36' W 166°18'690.0 330 / 211018.9 7.9 7.9 9.3
2016-Jun-25 17:56N 55°30' W 166°18'6 6.4 330 / 21 8.1 9.3
2016-Jun-25 17:00N 55°24' W 166°18'0 0.0 330 / 211018.4 8.2 8.2 8.8
2016-Jun-25 16:57N 55°24' W 166°18'3010.2 330 / 21 8.1 8.9
2016-Jun-25 14:00N 54°54' W 166°12'0 0.0 320 / 151018.5 8.0 7.6 8.6
2016-Jun-25 13:58N 54°54' W 166°12'0 0.0 320 / 14 8.0 8.6
2016-Jun-25 13:00N 54°54' W 166°12'6360.0 330 / 161018.5 7.9 7.3 8.6
2016-Jun-25 12:59N 54°48' W 166°12'6 6.1 320 / 16 7.9 8.6
2016-Jun-25 12:00N 54°54' W 166°12'7415.4 320 / 161018.510.8 1.5 8.1 7.5 8.5
2016-Jun-25 11:59N 54°48' W 166°06'7 7.0 320 / 17 8.4 8.6
2016-Jun-25 11:00N 54°54' W 166°12'651.4 330 / 171018.4 8.2 7.4 8.6
2016-Jun-25 10:53N 54°48' W 166°12'6 6.8 330 / 17 8.2 8.6
2016-Jun-25 10:00N 54°54' W 166°12'769.2 330 / 161018.2 9.1 7.8 8.6
2016-Jun-25 09:54N 54°48' W 166°06'7 7.7 340 / 16 9.7 8.6
2016-Jun-25 09:00N 54°54' W 166°12'783.1 330 / 181017.9 8.6 7.0 8.5
2016-Jun-25 08:55N 54°48' W 166°06'910.0 330 / 17 8.5 8.5
2016-Jun-25 08:00N 54°54' W 166°18'351.8 330 / 171017.6 8.6 7.9 8.7
2016-Jun-25 07:56N 54°54' W 166°12'7 7.4 330 / 16 8.7 8.7
2016-Jun-25 07:00N 54°48' W 166°18'7103.9 300 / 181017.2 8.1 8.1 8.3
2016-Jun-25 06:56N 54°42' W 166°12'4310.8 300 / 18 8.0 8.4
2016-Jun-25 03:00N 54°00' W 166°24'470.5 270 / 271018.4 8.4 7.5 8.1
2016-Jun-25 02:57N 54°00' W 166°18'9 9.8 270 / 28 8.3 8.1
2016-Jun-25 02:00N 53°54' W 166°30'4106.1 210 / 181018.4 10.7 7.3 9.3
2016-Jun-25 01:58N 53°54' W 166°24'4 3.7 230 / 13 10.8 9.4
2016-Jun-25 01:00N 53°54' W 166°30'0 0.0 200 / 141018.8 10.8 7.1 8.9
2016-Jun-25 00:59N 53°54' W 166°30'4 3.6 210 / 13 11.1 9.0
2016-Jun-25 00:00N 53°54' W 166°24'4 3.5 210 / 191016.8 5.4 0.510.2 6.9-8.8
2016-Jun-24 23:00N 53°54' W 166°30'430.3 240 / 241018.5 10.1 7.1 9.1
2016-Jun-24 22:53N 53°54' W 166°24'6 6.8 240 / 25 10.1 9.1
2016-Jun-24 22:00N 54°00' W 166°24'0 0.0 290 / 291018.6 8.1 7.2 8.1
2016-Jun-24 21:54N 54°00' W 166°24'910.3 290 / 30 8.2 8.1
2016-Jun-24 21:00N 54°06' W 166°12'0 0.0 290 / 321018.6 7.8 7.8 7.8
2016-Jun-24 20:55N 54°06' W 166°12'1415.2 290 / 29 7.8 7.8
2016-Jun-24 20:00N 54°18' W 166°00'690.0 270 / 251018.7 7.7 7.7 8.0
2016-Jun-24 19:56N 54°12' W 166°00'1414.9 270 / 23 7.7 8.0
2016-Jun-24 19:00N 54°24' W 165°48'690.0 280 / 241018.1 8.0 8.0 8.3
2016-Jun-24 18:56N 54°18' W 165°48'9 9.9 280 / 24 7.9 8.3
2016-Jun-24 18:00N 54°24' W 165°36'0 0.0 270 / 231017.8 7.9 7.5 8.7
2016-Jun-24 17:57N 54°24' W 165°36'0 0.0 280 / 24 7.9 8.7
2016-Jun-24 17:00N 54°24' W 165°36'0 0.0 270 / 241017.8 8.0 7.6 8.5
2016-Jun-24 16:58N 54°24' W 165°36'7 7.2 270 / 22 8.1 8.5
2016-Jun-24 16:00N 54°18' W 165°42'4210.1 280 / 261018.0 7.9 7.5 8.1
2016-Jun-24 15:59N 54°18' W 165°36'6 6.1 280 / 24 7.9 8.0
2016-Jun-24 15:00N 54°12' W 165°36'7 7.0 270 / 301015.5 0.5 1.5 9.0 6.8-8.0
2016-Jun-24 14:00N 54°12' W 165°48'632.7 280 / 341016.3 8.5 7.2 8.2
2016-Jun-24 13:49N 54°06' W 165°48'6 7.3 270 / 31 8.5 8.2
2016-Jun-24 13:00N 54°12' W 165°48'636.0 260 / 401015.8 8.6 7.1 8.2
2016-Jun-24 12:50N 54°06' W 165°48'6 7.2 270 / 40 8.5 8.2
2016-Jun-24 12:00N 54°12' W 165°48'640.0 280 / 391015.8 9.0 7.4 8.2
2016-Jun-24 11:51N 54°06' W 165°48'6 7.1 270 / 43 8.8 8.3
2016-Jun-24 11:00N 54°12' W 165°48'645.0 270 / 391015.6 8.6 7.1 8.3
2016-Jun-24 10:52N 54°06' W 165°48'6 6.9 270 / 44 8.7 8.3
2016-Jun-24 10:00N 54°12' W 165°48'651.4 280 / 391015.6 9.7 7.3 8.2
2016-Jun-24 09:53N 54°06' W 165°48'6 6.8 280 / 39 9.6 8.2
2016-Jun-24 09:00N 54°12' W 165°48'651.4 280 / 421016.4 10.9 7.6 8.5
2016-Jun-24 08:53N 54°06' W 165°48'6 6.8 280 / 40 10.8 8.5
2016-Jun-24 08:00N 54°12' W 165°48'660.0 260 / 261017.0 14.2 7.7 8.5
2016-Jun-24 07:54N 54°06' W 165°48'6 6.7 270 / 20 13.8 8.5
2016-Jun-24 07:00N 54°12' W 165°48'442.1 280 / 261017.1 11.0 7.4 8.1
2016-Jun-24 06:55N 54°12' W 165°42'1213.1 280 / 32 11.5 8.1
2016-Jun-24 06:00N 54°24' W 165°42'7104.2 250 / 291017.7 8.3 7.7 8.3
2016-Jun-24 05:56N 54°18' W 165°36'1213.4 260 / 29 8.3 8.3
2016-Jun-24 05:00N 54°30' W 165°42'352.3 260 / 311017.4 8.3 7.8 8.6
2016-Jun-24 04:56N 54°30' W 165°36'1213.4 260 / 34 8.3 8.6
2016-Jun-24 04:00N 54°42' W 165°42'7138.6 260 / 301017.4 8.1 8.0 8.5
2016-Jun-24 03:57N 54°36' W 165°36'6 6.3 260 / 32 8.0 8.5
2016-Jun-24 03:00N 54°42' W 165°36'3104.0 260 / 301015.6 2.2 2.5 8.5 7.5-8.5
2016-Jun-24 02:58N 54°42' W 165°42'1212.4 260 / 30 7.9 8.5
2016-Jun-24 02:00N 54°54' W 165°42'0 0.0 260 / 281017.3 7.9 7.5 8.5
2016-Jun-24 01:59N 54°54' W 165°42'1212.2 260 / 30 8.0 8.4
2016-Jun-24 01:00N 55°06' W 165°42'7 6.9 270 / 281017.3 7.8 7.1 8.7
2016-Jun-24 00:00N 55°12' W 165°36'1818.3 270 / 241015.3 5.4 2.0 8.1 7.0-9.1
2016-Jun-23 23:00N 55°30' W 165°42'6180.0 280 / 261016.3 8.3 7.0 8.7
2016-Jun-23 22:58N 55°24' W 165°42'1212.4 280 / 27 8.4 8.7
2016-Jun-23 22:00N 55°36' W 165°42'0 0.0 280 / 281015.4 8.3 7.2 9.3
2016-Jun-23 21:59N 55°36' W 165°42'1212.2 290 / 26 8.4 9.3
2016-Jun-23 21:00N 55°48' W 165°42'1212.0 280 / 261014.4 5.4 1.5 8.9 8.2 9.3
2016-Jun-23 20:00N 56°00' W 165°42'0 0.0 290 / 231013.5 8.9 8.3 9.3
2016-Jun-23 19:40N 56°00' W 165°42'1218.7 290 / 23 8.9 9.4
2016-Jun-23 19:00N 56°12' W 165°48'721.7 270 / 181012.8 9.0 8.5 9.3
2016-Jun-23 18:41N 56°06' W 165°42'6 8.8 270 / 16 8.6 9.3
2016-Jun-23 18:00N 56°12' W 165°42'0 0.0 270 / 171012.6 8.8 7.7 9.3
2016-Jun-23 17:42N 56°12' W 165°42'0 0.0 270 / 17 8.7 9.3
2016-Jun-23 17:00N 56°12' W 165°42'621.2 260 / 191012.4 8.9 7.8 9.3
2016-Jun-23 16:43N 56°06' W 165°42'1217.4 260 / 18 8.8 9.3
2016-Jun-23 16:00N 56°18' W 165°48'312.5 270 / 211011.6 8.3 7.5 9.2
2016-Jun-23 15:44N 56°18' W 165°42'7 9.4 270 / 20 8.5 9.3
2016-Jun-23 15:00N 56°24' W 165°36'727.4 260 / 191009.010.8 1.5 8.8 7.7-9.3
2016-Jun-23 14:45N 56°30' W 165°42'6 8.0 260 / 18 8.7 9.3
2016-Jun-23 14:00N 56°36' W 165°42'0 0.0 260 / 161010.6 8.6 7.8 9.3
2016-Jun-23 13:45N 56°36' W 165°42'3 4.4 250 / 14 9.1 9.3
2016-Jun-23 13:00N 56°36' W 165°48'314.2 250 / 141010.8 8.2 7.8 9.3
2016-Jun-23 12:46N 56°36' W 165°42'0 0.0 250 / 14 8.2 9.3
2016-Jun-23 12:00N 56°36' W 165°42'0 0.0 240 / 161010.810.8 1.5 8.9 8.4 9.3
2016-Jun-23 11:47N 56°36' W 165°42'0 0.0 240 / 13 8.9 9.3
2016-Jun-23 11:00N 56°36' W 165°42'0 0.0 220 / 181011.0 8.3 7.8 9.3
2016-Jun-23 10:48N 56°36' W 165°42'0 0.0 220 / 19 8.3 9.3
2016-Jun-23 10:00N 56°36' W 165°42'0 0.0 220 / 61010.9 8.3 7.9 9.3
2016-Jun-23 09:49N 56°36' W 165°42'0 0.0 220 / 7 8.3 9.3
2016-Jun-23 09:00N 56°36' W 165°42'0 0.0 210 / 211011.4 8.5 8.1 9.3
2016-Jun-23 08:49N 56°36' W 165°42'3 4.0 220 / 7 8.5 9.3
2016-Jun-23 08:00N 56°36' W 165°48'319.8 220 / 211011.6 8.4 8.1 9.3
2016-Jun-23 07:50N 56°36' W 165°42'1214.9 220 / 21 8.4 9.3
2016-Jun-23 07:00N 56°48' W 165°48'745.6 220 / 211011.3 8.5 7.8 9.3
2016-Jun-23 06:51N 56°42' W 165°42'1214.6 220 / 21 8.5 9.3
2016-Jun-23 06:00N 56°54' W 165°36'324.6 220 / 241009.4 5.4 3.5 8.7 7.8-9.3
2016-Jun-23 05:52N 56°54' W 165°42'7 7.9 220 / 23 8.7 9.3
2016-Jun-23 05:00N 57°00' W 165°48'328.0 210 / 261011.4 8.6 7.3 9.1
2016-Jun-23 04:53N 57°00' W 165°42'7 7.7 210 / 27 8.6 9.1
2016-Jun-23 04:00N 57°06' W 165°48'758.5 200 / 231011.9 8.8 7.3 9.2
2016-Jun-23 03:53N 57°00' W 165°42'3 3.7 200 / 22 8.7 9.2
2016-Jun-23 03:00N 57°00' W 165°48'332.7 200 / 251012.2 8.8 7.3 9.2
2016-Jun-23 02:54N 57°00' W 165°42'7 7.6 200 / 24 8.9 9.2
2016-Jun-23 02:00N 57°06' W 165°48'782.0 190 / 241012.7 10.1 8.3 9.2
2016-Jun-23 01:55N 57°00' W 165°42'3 3.6 200 / 23 8.9 9.3
2016-Jun-23 01:00N 57°00' W 165°48'7102.5 200 / 191013.4 8.6 7.5 9.2
2016-Jun-23 00:56N 56°54' W 165°42'1213.3 190 / 21 8.6 9.2
2016-Jun-23 00:00N 57°06' W 165°48'1212.0 200 / 201013.6 8.5 7.6 9.1
2016-Jun-22 23:00N 57°18' W 165°48'6180.0 190 / 191013.7 8.6 7.5 9.2
2016-Jun-22 22:58N 57°12' W 165°48'1111.8 190 / 19 8.6 9.2
2016-Jun-22 22:00N 57°18' W 165°30'0 0.0 190 / 231014.6 8.5 6.7 9.5
2016-Jun-22 21:58N 57°18' W 165°30'1313.4 180 / 21 8.2 9.5
2016-Jun-22 21:00N 57°18' W 165°06'3194.5 190 / 191013.3 5.4 2.0 9.1 7.6-9.5
2016-Jun-22 20:59N 57°18' W 165°12'1212.2 190 / 21 9.1 9.5
2016-Jun-22 20:00N 57°06' W 165°12'365.2 180 / 121016.0 9.7 8.1 9.5
2016-Jun-22 19:57N 57°06' W 165°06'18 9.4 190 / 16 9.6 9.5
2016-Jun-22 18:00N 56°48' W 165°12'3 3.3 200 / 131016.8 9.3 7.2 9.6
2016-Jun-22 17:00N 56°48' W 165°06'617.1 240 / 161016.8 8.6 7.5 9.7
2016-Jun-22 16:39N 56°42' W 165°06'710.5 240 / 19 8.6 9.7
2016-Jun-22 16:00N 56°48' W 165°12'719.6 220 / 181017.1 9.0 8.6 9.6
2016-Jun-22 15:39N 56°42' W 165°06'710.5 220 / 19 9.0 9.6
2016-Jun-22 15:00N 56°36' W 165°12'1212.4 220 / 181017.410.8 1.0 8.8 8.7 9.6
2016-Jun-22 14:00N 56°24' W 165°06'0 0.0 230 / 161017.5 9.1 9.0 9.6
2016-Jun-22 13:41N 56°24' W 165°06'6 8.8 220 / 15 9.2 9.6
2016-Jun-22 13:00N 56°18' W 165°06'0 0.0 200 / 171018.0 9.2 9.0 9.6
2016-Jun-22 12:42N 56°18' W 165°06'0 0.0 200 / 21 9.2 9.6
2016-Jun-22 12:00N 56°18' W 165°06'0 0.0 200 / 171018.2 9.2 9.1 9.7
2016-Jun-22 11:43N 56°18' W 165°06'0 0.0 200 / 17 9.2 9.7
2016-Jun-22 11:00N 56°18' W 165°06'0 0.0 180 / 181018.7 9.3 9.0 9.6
2016-Jun-22 10:43N 56°18' W 165°06'3 4.6 200 / 17 9.3 9.7
2016-Jun-22 10:00N 56°18' W 165°12'312.5 190 / 151018.9 9.8 9.3 9.7
2016-Jun-22 09:44N 56°18' W 165°06'0 0.0 180 / 13 9.6 9.6
2016-Jun-22 09:00N 56°18' W 165°06'0 0.0 190 / 141019.2 9.9 9.3 9.7
2016-Jun-22 08:45N 56°18' W 165°06'1216.0 170 / 14 9.9 9.7
2016-Jun-22 08:00N 56°30' W 165°06'625.7 160 / 121019.4 10.2 9.7 9.7
2016-Jun-22 07:46N 56°24' W 165°06'6 7.8 160 / 13 10.3 9.7
2016-Jun-22 07:00N 56°18' W 165°06'627.7 150 / 101019.8 9.8 9.3 9.7
2016-Jun-22 06:47N 56°12' W 165°06'3010.8 150 / 10 9.8 9.7
2016-Jun-22 04:00N 55°42' W 165°06'3 3.4 160 / 61020.3 10.1 9.5 9.6
2016-Jun-22 03:00N 55°42' W 165°12'320.3 150 / 61020.7 9.9 9.1 9.7
2016-Jun-22 02:50N 55°42' W 165°06'0 0.0 150 / 6 9.9 9.7
2016-Jun-22 02:00N 55°42' W 165°06'0 0.0 120 / 121021.1 9.6 8.9 9.6
2016-Jun-22 01:51N 55°42' W 165°06'1214.1 110 / 12 9.6 9.6
2016-Jun-22 01:00N 55°30' W 165°06'0 0.0 140 / 161021.7 9.9 9.1 9.1
2016-Jun-22 00:52N 55°30' W 165°06'6 6.9 130 / 16 9.9 9.1
2016-Jun-22 00:00N 55°24' W 165°06'6 6.0 110 / 101022.3 9.5 8.6 9.3
2016-Jun-21 23:00N 55°18' W 165°06'0 0.0 090 / 91023.0 9.9 8.8 9.2
2016-Jun-21 22:53N 55°18' W 165°06'0 0.0 090 / 9 9.9 9.2
2016-Jun-21 22:00N 55°18' W 165°06'660.0 100 / 81023.0 9.5 8.4 9.0
2016-Jun-21 21:54N 55°12' W 165°06'7 7.7 100 / 8 9.4 9.0
2016-Jun-21 21:00N 55°18' W 165°00'341.0 100 / 131021.410.8 0.5 9.1 8.4-8.8
2016-Jun-21 20:55N 55°18' W 165°06'1213.1 100 / 11 9.1 8.8
2016-Jun-21 20:00N 55°06' W 165°06'0 0.0 090 / 91023.5 8.9 8.0 8.8
2016-Jun-21 19:56N 55°06' W 165°06'1212.9 100 / 10 8.9 8.8
2016-Jun-21 19:00N 54°54' W 165°06'0 0.0 120 / 111023.3 9.3 7.7 8.2
2016-Jun-21 18:57N 54°54' W 165°06'6 6.3 110 / 9 9.3 8.1
2016-Jun-21 18:00N 55°00' W 165°06'6120.0 120 / 41024.3 9.2 8.3 8.2
2016-Jun-21 17:57N 54°54' W 165°06'0 0.0 130 / 5 9.0 8.2
2016-Jun-21 17:00N 54°54' W 165°06'0 0.0 090 / 91023.7 8.9 7.4 7.8
2016-Jun-21 16:58N 54°54' W 165°06'6 6.2 090 / 11 8.6 7.7
2016-Jun-21 16:00N 54°48' W 165°06'0 0.0 100 / 181023.5 9.3 8.1 8.2
2016-Jun-21 15:59N 54°48' W 165°06'0 0.0 090 / 12 9.1 8.3
2016-Jun-21 15:00N 54°48' W 165°06'6 6.0 070 / 91023.9 9.0 7.6 8.2
2016-Jun-21 14:00N 54°42' W 165°06'640.0 340 / 31024.4 8.9 7.8 8.0
2016-Jun-21 13:51N 54°36' W 165°06'6 7.1 350 / 2 8.8 8.0
2016-Jun-21 13:00N 54°42' W 165°06'640.0 300 / 51024.4 8.2 7.1 7.9
2016-Jun-21 12:51N 54°36' W 165°06'3 4.1 300 / 5 8.2 8.0
2016-Jun-21 12:00N 54°36' W 165°00'326.1 080 / 51022.510.8 0.510.0 7.1-7.8
2016-Jun-21 11:52N 54°36' W 165°06'6 6.9 070 / 3 8.3 7.7
2016-Jun-21 11:00N 54°42' W 165°06'651.4 200 / 81025.3 8.6 7.2 7.7
2016-Jun-21 10:53N 54°36' W 165°06'6 6.8 210 / 9 8.6 7.7
2016-Jun-21 10:00N 54°42' W 165°06'769.3 180 / 41025.0 8.5 7.0 7.9
2016-Jun-21 09:54N 54°36' W 165°00'7 7.7 180 / 4 8.5 8.0
2016-Jun-21 09:00N 54°42' W 165°06'672.0 130 / 51024.9 8.6 7.2 7.8
2016-Jun-21 08:55N 54°36' W 165°06'6 6.5 130 / 5 8.7 7.8
2016-Jun-21 08:00N 54°42' W 165°06'341.6 250 / 61024.9 8.0 6.9 8.4
2016-Jun-21 07:55N 54°42' W 165°00'7 7.6 240 / 6 7.9 8.3
2016-Jun-21 07:00N 54°36' W 165°06'0 0.0 030 / 61024.9 8.5 7.2 7.8
2016-Jun-21 06:56N 54°36' W 165°06'1212.9 020 / 5 8.3 7.9
2016-Jun-21 06:00N 54°24' W 165°06'0 0.0 090 / 31024.7 7.5 6.3 7.4
2016-Jun-21 05:57N 54°24' W 165°06'6 6.3 100 / 2 7.6 7.3
2016-Jun-21 05:00N 54°18' W 165°06'7208.5 040 / 31024.8 7.5 6.1 7.5
2016-Jun-21 04:58N 54°12' W 165°00'1312.9 050 / 4 7.4 7.5
2016-Jun-21 04:00N 54°24' W 165°06'0 0.0 210 / 11024.9 7.8 6.3 8.1
2016-Jun-21 03:59N 54°24' W 165°06'1212.2 260 / 1 7.9 7.8
2016-Jun-21 03:00N 54°36' W 165°06'6360.0 340 / 51024.7 8.2 6.7 8.2
2016-Jun-21 02:59N 54°30' W 165°06'1414.1 310 / 3 8.4 8.1
2016-Jun-21 02:00N 54°42' W 164°54'3 9.5 1024.5 8.6 6.2 9.4
2016-Jun-21 01:38N 54°42' W 164°48'1219.7 360 / 6 8.8 9.3
2016-Jun-21 01:00N 54°54' W 164°42'3 9.9 310 / 31024.7 8.7 7.7 9.5
2016-Jun-21 00:39N 54°54' W 164°36'1219.2 290 / 4 8.5 9.3
2016-Jun-21 00:00N 55°06' W 164°30'3 3.4 280 / 41024.8 5.4 2.0 8.7 7.7 9.6
2016-Jun-20 23:00N 55°06' W 164°36'310.8 290 / 41024.7 8.6 7.9 9.1
2016-Jun-20 22:41N 55°06' W 164°30'0 0.0 290 / 6 8.1 9.1
2016-Jun-20 22:00N 55°06' W 164°30'311.4 260 / 101024.5 7.8 7.1 9.3
2016-Jun-20 21:42N 55°06' W 164°24'6 8.6 250 / 11 7.9 8.7
2016-Jun-20 21:00N 55°00' W 164°24'621.2 250 / 111024.3 9.5 9.0 8.9
2016-Jun-20 20:43N 54°54' W 164°24'1217.4 240 / 9 9.5 8.7
2016-Jun-20 20:00N 55°06' W 164°30'0 0.0 250 / 131023.9 7.5 7.0 8.8
2016-Jun-20 19:43N 55°06' W 164°30'1216.7 250 / 12 7.7 9.0
2016-Jun-20 19:00N 55°18' W 164°30'0 0.0 260 / 151023.1 7.7 7.3 8.9
2016-Jun-20 18:44N 55°18' W 164°30'6 8.2 260 / 14 7.9 9.3
2016-Jun-20 18:00N 55°24' W 164°30'0 0.0 260 / 141022.4 8.0 7.5 9.2
2016-Jun-20 17:45N 55°24' W 164°30'6 8.0 260 / 16 7.9 9.2
2016-Jun-20 17:00N 55°30' W 164°30'625.7 250 / 151022.1 8.0 7.4 9.3
2016-Jun-20 16:46N 55°24' W 164°30'6 7.8 240 / 16 8.2 9.3
2016-Jun-20 16:00N 55°30' W 164°30'0 0.0 260 / 171021.5 8.1 7.3 9.3
2016-Jun-20 15:47N 55°30' W 164°30'1215.9 260 / 17 8.0 9.3
2016-Jun-20 15:00N 55°42' W 164°24'316.9 260 / 191018.7 5.4 2.5 8.2 7.6-9.5
2016-Jun-20 14:48N 55°42' W 164°30'6 7.5 260 / 19 8.1 9.5
2016-Jun-20 14:00N 55°48' W 164°30'0 0.0 250 / 191020.3 8.1 7.4 9.4
2016-Jun-20 13:48N 55°48' W 164°30'0 0.0 250 / 20 8.1 9.4
2016-Jun-20 13:00N 55°48' W 164°30'0 0.0 240 / 201019.8 8.0 7.3 9.4
2016-Jun-20 12:49N 55°48' W 164°30'0 0.0 240 / 20 8.0 9.4
2016-Jun-20 12:00N 55°48' W 164°30'0 0.0 240 / 221019.5 8.1 7.1 9.4
2016-Jun-20 11:50N 55°48' W 164°30'6 7.2 250 / 23 8.2 9.4
2016-Jun-20 11:00N 55°54' W 164°30'640.0 240 / 221019.4 8.2 7.2 9.3
2016-Jun-20 10:51N 55°48' W 164°30'6 7.1 230 / 20 8.3 9.3
2016-Jun-20 10:00N 55°54' W 164°30'645.0 230 / 231019.0 8.1 7.1 9.1
2016-Jun-20 09:52N 55°48' W 164°30'7 7.9 240 / 21 8.1 9.1
2016-Jun-20 09:00N 55°54' W 164°24'651.4 230 / 241018.5 8.2 6.9 9.2
2016-Jun-20 08:53N 55°48' W 164°24'7 7.8 230 / 24 8.2 9.2
2016-Jun-20 08:00N 55°54' W 164°30'651.4 240 / 231018.1 8.2 6.9 9.4
2016-Jun-20 07:53N 55°48' W 164°30'6 6.8 240 / 24 8.2 9.4
2016-Jun-20 07:00N 55°54' W 164°30'768.8 230 / 251017.7 8.4 7.2 9.5
2016-Jun-20 06:54N 55°48' W 164°24'0 0.0 230 / 25 8.4 9.5
2016-Jun-20 06:00N 55°48' W 164°24'340.5 230 / 241015.5 5.4 2.0 8.3 7.1-9.3
2016-Jun-20 05:55N 55°48' W 164°30'1213.1 240 / 27 8.3 9.3
2016-Jun-20 05:00N 56°00' W 164°30'0 0.0 240 / 241016.6 8.7 7.2 9.6
2016-Jun-20 04:56N 56°00' W 164°30'6 6.4 240 / 25 8.6 9.6
2016-Jun-20 04:00N 56°06' W 164°30'6120.0 230 / 181016.2 8.7 7.6 9.6
2016-Jun-20 03:57N 56°00' W 164°30'6 6.3 230 / 19 8.8 9.6
2016-Jun-20 03:00N 56°06' W 164°30'6120.0 230 / 231016.1 8.9 7.2 9.5
2016-Jun-20 02:57N 56°00' W 164°30'6 6.3 230 / 22 8.9 9.5
2016-Jun-20 02:00N 56°06' W 164°30'6180.0 220 / 241016.1 8.8 7.8 9.6
2016-Jun-20 01:58N 56°00' W 164°30'6 6.2 220 / 23 9.0 9.5
2016-Jun-20 01:00N 56°06' W 164°30'0 0.0 240 / 261015.5 8.5 7.5 9.5
2016-Jun-20 00:59N 56°06' W 164°30'7 7.0 240 / 27 8.7 9.5
2016-Jun-20 00:00N 56°12' W 164°36'3 3.3 230 / 221014.910.8 2.0 8.7 6.7 9.5
2016-Jun-19 23:00N 56°12' W 164°30'0 0.0 220 / 201014.5 8.7 6.8 9.6
2016-Jun-19 22:53N 56°12' W 164°30'0 0.0 220 / 20 8.6 9.6
2016-Jun-19 22:00N 56°12' W 164°30'0 0.0 240 / 221013.8 8.9 6.1 9.5
2016-Jun-19 21:54N 56°12' W 164°30'1213.3 240 / 22 8.8 9.5
2016-Jun-19 21:00N 56°24' W 164°30'0 0.0 240 / 251012.8 8.7 5.7 9.5
2016-Jun-19 20:55N 56°24' W 164°30'1213.1 240 / 25 8.7 9.4
2016-Jun-19 20:00N 56°36' W 164°30'0 0.0 250 / 241012.0 8.8 5.3 9.7
2016-Jun-19 19:56N 56°36' W 164°30'7 7.3 250 / 23 8.8 9.7
2016-Jun-19 19:00N 56°42' W 164°36'7136.9 240 / 181011.3 8.7 5.4 9.6
2016-Jun-19 18:57N 56°36' W 164°30'6 6.3 240 / 21 8.6 9.6
2016-Jun-19 18:00N 56°42' W 164°30'0 0.0 250 / 181010.4 8.8 5.7 9.7
2016-Jun-19 17:57N 56°42' W 164°30'0 0.0 260 / 20 8.7 9.7
2016-Jun-19 17:00N 56°42' W 164°30'   260 / 271009.4 8.8 5.9 9.7

Dump ship's entire track history